sensor_id;sensor_type;location;lat;lon;timestamp;temperature;humidity
24614;DHT22;12760;46.296;25.290;2023-03-01T00:02:00;5.30;99.90
24614;DHT22;12760;46.296;25.290;2023-03-01T00:04:26;5.40;99.90
24614;DHT22;12760;46.296;25.290;2023-03-01T00:06:53;5.30;99.90
24614;DHT22;12760;46.296;25.290;2023-03-01T00:09:19;5.30;99.90
24614;DHT22;12760;46.296;25.290;2023-03-01T00:11:45;5.40;99.90
24614;DHT22;12760;46.296;25.290;2023-03-01T00:14:11;5.40;99.90
24614;DHT22;12760;46.296;25.290;2023-03-01T00:16:40;5.40;99.90
24614;DHT22;12760;46.296;25.290;2023-03-01T00:19:12;5.50;99.90
24614;DHT22;12760;46.296;25.290;2023-03-01T00:21:39;5.50;99.90
24614;DHT22;12760;46.296;25.290;2023-03-01T00:24:05;5.50;99.90
24614;DHT22;12760;46.296;25.290;2023-03-01T00:26:31;5.50;99.90
24614;DHT22;12760;46.296;25.290;2023-03-01T00:28:58;5.50;99.90
24614;DHT22;12760;46.296;25.290;2023-03-01T00:31:26;5.50;99.90
24614;DHT22;12760;46.296;25.290;2023-03-01T00:33:57;5.60;99.90
24614;DHT22;12760;46.296;25.290;2023-03-01T00:36:25;5.60;99.90
24614;DHT22;12760;46.296;25.290;2023-03-01T00:38:50;5.70;99.90
24614;DHT22;12760;46.296;25.290;2023-03-01T00:41:17;5.60;99.90
24614;DHT22;12760;46.296;25.290;2023-03-01T00:43:44;5.60;99.90
24614;DHT22;12760;46.296;25.290;2023-03-01T00:46:15;5.60;99.90
24614;DHT22;12760;46.296;25.290;2023-03-01T00:48:41;5.60;99.90
24614;DHT22;12760;46.296;25.290;2023-03-01T00:51:09;5.70;99.90
24614;DHT22;12760;46.296;25.290;2023-03-01T00:53:36;5.70;99.90
24614;DHT22;12760;46.296;25.290;2023-03-01T00:56:03;5.70;99.90
24614;DHT22;12760;46.296;25.290;2023-03-01T00:58:29;5.70;99.90
24614;DHT22;12760;46.296;25.290;2023-03-01T01:00:55;5.70;99.90
24614;DHT22;12760;46.296;25.290;2023-03-01T01:03:21;5.80;99.90
24614;DHT22;12760;46.296;25.290;2023-03-01T01:05:47;5.80;99.90
24614;DHT22;12760;46.296;25.290;2023-03-01T01:08:13;5.80;99.90
24614;DHT22;12760;46.296;25.290;2023-03-01T01:10:38;5.70;99.90
24614;DHT22;12760;46.296;25.290;2023-03-01T01:13:04;5.70;99.90
24614;DHT22;12760;46.296;25.290;2023-03-01T01:15:33;5.70;99.90
24614;DHT22;12760;46.296;25.290;2023-03-01T01:18:00;5.70;99.90
24614;DHT22;12760;46.296;25.290;2023-03-01T01:20:26;5.70;99.90
24614;DHT22;12760;46.296;25.290;2023-03-01T01:22:51;5.70;99.90
24614;DHT22;12760;46.296;25.290;2023-03-01T01:25:18;5.70;99.90
24614;DHT22;12760;46.296;25.290;2023-03-01T01:27:44;5.70;99.90
24614;DHT22;12760;46.296;25.290;2023-03-01T01:30:10;5.70;99.90
24614;DHT22;12760;46.296;25.290;2023-03-01T01:32:36;5.70;99.90
24614;DHT22;12760;46.296;25.290;2023-03-01T01:35:02;5.70;99.90
24614;DHT22;12760;46.296;25.290;2023-03-01T01:37:27;5.70;99.90
24614;DHT22;12760;46.296;25.290;2023-03-01T01:40:00;5.70;99.90
24614;DHT22;12760;46.296;25.290;2023-03-01T01:42:27;5.70;99.90
24614;DHT22;12760;46.296;25.290;2023-03-01T01:47:51;5.70;99.90
24614;DHT22;12760;46.296;25.290;2023-03-01T01:50:18;5.80;99.90
24614;DHT22;12760;46.296;25.290;2023-03-01T01:52:45;5.80;99.90
24614;DHT22;12760;46.296;25.290;2023-03-01T01:55:18;5.80;99.90
24614;DHT22;12760;46.296;25.290;2023-03-01T01:57:49;5.70;99.90
24614;DHT22;12760;46.296;25.290;2023-03-01T02:00:20;5.70;99.90
24614;DHT22;12760;46.296;25.290;2023-03-01T02:02:48;5.70;99.90
24614;DHT22;12760;46.296;25.290;2023-03-01T02:06:06;5.80;99.90
24614;DHT22;12760;46.296;25.290;2023-03-01T02:08:38;5.80;99.90
24614;DHT22;12760;46.296;25.290;2023-03-01T02:11:07;5.90;99.90
24614;DHT22;12760;46.296;25.290;2023-03-01T02:13:34;5.80;99.90
24614;DHT22;12760;46.296;25.290;2023-03-01T02:16:10;5.70;99.90
24614;DHT22;12760;46.296;25.290;2023-03-01T02:18:38;5.70;99.90
24614;DHT22;12760;46.296;25.290;2023-03-01T02:23:49;5.60;99.90
24614;DHT22;12760;46.296;25.290;2023-03-01T02:28:56;5.30;99.90
24614;DHT22;12760;46.296;25.290;2023-03-01T02:31:22;5.20;99.90
24614;DHT22;12760;46.296;25.290;2023-03-01T02:34:08;5.20;99.90
24614;DHT22;12760;46.296;25.290;2023-03-01T02:36:44;5.10;99.90
24614;DHT22;12760;46.296;25.290;2023-03-01T02:39:14;5.20;99.90
24614;DHT22;12760;46.296;25.290;2023-03-01T02:41:44;5.20;99.90
24614;DHT22;12760;46.296;25.290;2023-03-01T02:44:11;5.20;99.90
24614;DHT22;12760;46.296;25.290;2023-03-01T02:46:49;5.30;99.90
24614;DHT22;12760;46.296;25.290;2023-03-01T02:49:30;5.20;99.90
24614;DHT22;12760;46.296;25.290;2023-03-01T02:55:06;5.20;99.90
24614;DHT22;12760;46.296;25.290;2023-03-01T02:57:34;5.20;99.90
24614;DHT22;12760;46.296;25.290;2023-03-01T03:00:05;5.20;99.90
24614;DHT22;12760;46.296;25.290;2023-03-01T03:02:33;5.20;99.90
24614;DHT22;12760;46.296;25.290;2023-03-01T03:05:04;5.30;99.90
24614;DHT22;12760;46.296;25.290;2023-03-01T03:07:33;5.30;99.90
24614;DHT22;12760;46.296;25.290;2023-03-01T03:10:00;5.30;99.90
24614;DHT22;12760;46.296;25.290;2023-03-01T03:12:25;5.30;99.90
24614;DHT22;12760;46.296;25.290;2023-03-01T03:14:51;5.40;99.90
24614;DHT22;12760;46.296;25.290;2023-03-01T03:17:17;5.40;99.90
24614;DHT22;12760;46.296;25.290;2023-03-01T03:19:42;5.40;99.90
24614;DHT22;12760;46.296;25.290;2023-03-01T03:22:11;5.30;99.90
24614;DHT22;12760;46.296;25.290;2023-03-01T03:24:37;5.20;99.90
24614;DHT22;12760;46.296;25.290;2023-03-01T03:27:07;5.20;99.90
24614;DHT22;12760;46.296;25.290;2023-03-01T03:29:33;5.30;99.90
24614;DHT22;12760;46.296;25.290;2023-03-01T03:31:59;5.20;99.90
24614;DHT22;12760;46.296;25.290;2023-03-01T03:34:25;5.30;99.90
24614;DHT22;12760;46.296;25.290;2023-03-01T03:36:54;5.40;99.90
24614;DHT22;12760;46.296;25.290;2023-03-01T03:39:28;5.40;99.90
24614;DHT22;12760;46.296;25.290;2023-03-01T03:41:54;5.50;99.90
24614;DHT22;12760;46.296;25.290;2023-03-01T03:44:21;5.50;99.90
24614;DHT22;12760;46.296;25.290;2023-03-01T03:46:47;5.60;99.90
24614;DHT22;12760;46.296;25.290;2023-03-01T03:49:12;5.50;99.90
24614;DHT22;12760;46.296;25.290;2023-03-01T03:51:38;5.50;99.90
24614;DHT22;12760;46.296;25.290;2023-03-01T03:54:04;5.50;99.90
24614;DHT22;12760;46.296;25.290;2023-03-01T03:56:29;5.50;99.90
24614;DHT22;12760;46.296;25.290;2023-03-01T03:58:55;5.60;99.90
24614;DHT22;12760;46.296;25.290;2023-03-01T04:01:21;5.60;99.90
24614;DHT22;12760;46.296;25.290;2023-03-01T04:03:46;5.60;99.90
24614;DHT22;12760;46.296;25.290;2023-03-01T04:06:13;5.60;99.90
24614;DHT22;12760;46.296;25.290;2023-03-01T04:08:40;5.60;99.90
24614;DHT22;12760;46.296;25.290;2023-03-01T04:11:06;5.60;99.90
24614;DHT22;12760;46.296;25.290;2023-03-01T04:13:52;5.50;99.90
24614;DHT22;12760;46.296;25.290;2023-03-01T04:16:18;5.60;99.90
24614;DHT22;12760;46.296;25.290;2023-03-01T04:18:44;5.60;99.90
24614;DHT22;12760;46.296;25.290;2023-03-01T04:21:10;5.50;99.90
24614;DHT22;12760;46.296;25.290;2023-03-01T04:23:37;5.60;99.90
24614;DHT22;12760;46.296;25.290;2023-03-01T04:26:03;5.60;99.90
24614;DHT22;12760;46.296;25.290;2023-03-01T04:28:34;5.60;99.90
24614;DHT22;12760;46.296;25.290;2023-03-01T04:31:09;5.70;99.90
24614;DHT22;12760;46.296;25.290;2023-03-01T04:36:08;5.70;99.90
24614;DHT22;12760;46.296;25.290;2023-03-01T04:38:35;5.80;99.90
24614;DHT22;12760;46.296;25.290;2023-03-01T04:41:06;5.80;99.90
24614;DHT22;12760;46.296;25.290;2023-03-01T04:43:33;5.80;99.90
24614;DHT22;12760;46.296;25.290;2023-03-01T04:46:04;5.70;99.90
24614;DHT22;12760;46.296;25.290;2023-03-01T04:48:32;5.70;99.90
24614;DHT22;12760;46.296;25.290;2023-03-01T04:50:59;5.70;99.90
24614;DHT22;12760;46.296;25.290;2023-03-01T04:53:25;5.70;99.90
24614;DHT22;12760;46.296;25.290;2023-03-01T04:55:51;5.70;99.90
24614;DHT22;12760;46.296;25.290;2023-03-01T04:58:16;5.70;99.90
24614;DHT22;12760;46.296;25.290;2023-03-01T05:00:42;5.70;99.90
24614;DHT22;12760;46.296;25.290;2023-03-01T05:03:08;5.70;99.90
24614;DHT22;12760;46.296;25.290;2023-03-01T05:05:38;5.70;99.90
24614;DHT22;12760;46.296;25.290;2023-03-01T05:08:06;5.70;99.90
24614;DHT22;12760;46.296;25.290;2023-03-01T05:10:34;5.70;99.90
24614;DHT22;12760;46.296;25.290;2023-03-01T05:13:01;5.60;99.90
24614;DHT22;12760;46.296;25.290;2023-03-01T05:15:29;5.60;99.90
24614;DHT22;12760;46.296;25.290;2023-03-01T05:17:58;5.60;99.90
24614;DHT22;12760;46.296;25.290;2023-03-01T05:20:26;5.60;99.90
24614;DHT22;12760;46.296;25.290;2023-03-01T05:22:54;5.70;99.90
24614;DHT22;12760;46.296;25.290;2023-03-01T05:25:20;5.70;99.90
24614;DHT22;12760;46.296;25.290;2023-03-01T05:27:47;5.70;99.90
24614;DHT22;12760;46.296;25.290;2023-03-01T05:30:13;5.70;99.90
24614;DHT22;12760;46.296;25.290;2023-03-01T05:32:41;5.70;99.90
24614;DHT22;12760;46.296;25.290;2023-03-01T05:35:07;5.70;99.90
24614;DHT22;12760;46.296;25.290;2023-03-01T05:37:32;5.80;99.90
24614;DHT22;12760;46.296;25.290;2023-03-01T05:39:58;5.80;99.90
24614;DHT22;12760;46.296;25.290;2023-03-01T05:42:24;5.80;99.90
24614;DHT22;12760;46.296;25.290;2023-03-01T05:44:49;5.80;99.90
24614;DHT22;12760;46.296;25.290;2023-03-01T05:47:15;5.80;99.90
24614;DHT22;12760;46.296;25.290;2023-03-01T05:49:41;5.80;99.90
24614;DHT22;12760;46.296;25.290;2023-03-01T05:52:07;5.80;99.90
24614;DHT22;12760;46.296;25.290;2023-03-01T05:54:33;5.80;99.90
24614;DHT22;12760;46.296;25.290;2023-03-01T05:56:58;5.80;99.90
24614;DHT22;12760;46.296;25.290;2023-03-01T05:59:24;5.80;99.90
24614;DHT22;12760;46.296;25.290;2023-03-01T06:01:50;5.80;99.90
24614;DHT22;12760;46.296;25.290;2023-03-01T06:04:16;5.80;99.90
24614;DHT22;12760;46.296;25.290;2023-03-01T06:06:42;5.80;99.90
24614;DHT22;12760;46.296;25.290;2023-03-01T06:09:07;5.80;99.90
24614;DHT22;12760;46.296;25.290;2023-03-01T06:11:35;5.80;99.90
24614;DHT22;12760;46.296;25.290;2023-03-01T06:14:02;5.90;99.90
24614;DHT22;12760;46.296;25.290;2023-03-01T06:16:28;5.80;99.90
24614;DHT22;12760;46.296;25.290;2023-03-01T06:18:54;5.80;99.90
24614;DHT22;12760;46.296;25.290;2023-03-01T06:21:19;5.80;99.90
24614;DHT22;12760;46.296;25.290;2023-03-01T06:23:45;5.80;99.90
24614;DHT22;12760;46.296;25.290;2023-03-01T06:26:11;5.80;99.90
24614;DHT22;12760;46.296;25.290;2023-03-01T06:28:36;5.80;99.90
24614;DHT22;12760;46.296;25.290;2023-03-01T06:31:02;5.80;99.90
24614;DHT22;12760;46.296;25.290;2023-03-01T06:33:28;5.80;99.90
24614;DHT22;12760;46.296;25.290;2023-03-01T06:35:55;5.70;99.90
24614;DHT22;12760;46.296;25.290;2023-03-01T06:38:22;5.70;99.90
24614;DHT22;12760;46.296;25.290;2023-03-01T06:40:54;5.80;99.90
24614;DHT22;12760;46.296;25.290;2023-03-01T06:43:22;5.80;99.90
24614;DHT22;12760;46.296;25.290;2023-03-01T06:45:48;5.80;99.90
24614;DHT22;12760;46.296;25.290;2023-03-01T06:48:14;5.80;99.90
24614;DHT22;12760;46.296;25.290;2023-03-01T06:50:40;5.70;99.90
24614;DHT22;12760;46.296;25.290;2023-03-01T06:53:06;5.80;99.90
24614;DHT22;12760;46.296;25.290;2023-03-01T06:55:32;5.70;99.90
24614;DHT22;12760;46.296;25.290;2023-03-01T06:57:59;5.70;99.90
24614;DHT22;12760;46.296;25.290;2023-03-01T07:00:26;5.70;99.90
24614;DHT22;12760;46.296;25.290;2023-03-01T07:02:52;5.70;99.90
24614;DHT22;12760;46.296;25.290;2023-03-01T07:05:18;5.70;99.90
24614;DHT22;12760;46.296;25.290;2023-03-01T07:07:44;5.70;99.90
24614;DHT22;12760;46.296;25.290;2023-03-01T07:10:10;5.80;99.90
24614;DHT22;12760;46.296;25.290;2023-03-01T07:12:36;5.80;99.90
24614;DHT22;12760;46.296;25.290;2023-03-01T07:15:02;5.80;99.90
24614;DHT22;12760;46.296;25.290;2023-03-01T07:17:28;5.90;99.90
24614;DHT22;12760;46.296;25.290;2023-03-01T07:19:53;5.90;99.90
24614;DHT22;12760;46.296;25.290;2023-03-01T07:22:19;5.90;99.90
24614;DHT22;12760;46.296;25.290;2023-03-01T07:24:45;6.00;99.90
24614;DHT22;12760;46.296;25.290;2023-03-01T07:27:11;6.00;99.90
24614;DHT22;12760;46.296;25.290;2023-03-01T07:29:36;6.10;99.90
24614;DHT22;12760;46.296;25.290;2023-03-01T07:32:03;6.10;99.90
24614;DHT22;12760;46.296;25.290;2023-03-01T07:34:29;6.20;99.90
24614;DHT22;12760;46.296;25.290;2023-03-01T07:36:55;6.30;99.90
24614;DHT22;12760;46.296;25.290;2023-03-01T07:39:20;6.30;99.90
24614;DHT22;12760;46.296;25.290;2023-03-01T07:41:48;6.30;99.90
24614;DHT22;12760;46.296;25.290;2023-03-01T07:44:14;6.20;99.90
24614;DHT22;12760;46.296;25.290;2023-03-01T07:46:40;6.20;99.90
24614;DHT22;12760;46.296;25.290;2023-03-01T07:49:06;6.30;99.90
24614;DHT22;12760;46.296;25.290;2023-03-01T07:51:32;6.30;99.90
24614;DHT22;12760;46.296;25.290;2023-03-01T07:53:58;6.30;99.90
24614;DHT22;12760;46.296;25.290;2023-03-01T07:56:23;6.30;99.90
24614;DHT22;12760;46.296;25.290;2023-03-01T07:58:49;6.40;99.90
24614;DHT22;12760;46.296;25.290;2023-03-01T08:01:17;6.50;99.90
24614;DHT22;12760;46.296;25.290;2023-03-01T08:03:43;6.50;99.90
24614;DHT22;12760;46.296;25.290;2023-03-01T08:06:10;6.60;99.90
24614;DHT22;12760;46.296;25.290;2023-03-01T08:08:36;6.60;99.90
24614;DHT22;12760;46.296;25.290;2023-03-01T08:11:04;6.60;99.90
24614;DHT22;12760;46.296;25.290;2023-03-01T08:13:31;6.60;99.90
24614;DHT22;12760;46.296;25.290;2023-03-01T08:16:04;6.60;99.90
24614;DHT22;12760;46.296;25.290;2023-03-01T08:18:31;6.60;99.90
24614;DHT22;12760;46.296;25.290;2023-03-01T08:21:02;6.60;99.90
24614;DHT22;12760;46.296;25.290;2023-03-01T08:23:27;6.70;99.90
24614;DHT22;12760;46.296;25.290;2023-03-01T08:25:55;6.70;99.90
24614;DHT22;12760;46.296;25.290;2023-03-01T08:28:28;6.80;99.90
24614;DHT22;12760;46.296;25.290;2023-03-01T08:30:54;6.80;99.90
24614;DHT22;12760;46.296;25.290;2023-03-01T08:33:19;6.80;99.90
24614;DHT22;12760;46.296;25.290;2023-03-01T08:35:45;6.90;99.90
24614;DHT22;12760;46.296;25.290;2023-03-01T08:38:11;7.00;99.90
24614;DHT22;12760;46.296;25.290;2023-03-01T08:40:36;7.10;99.90
24614;DHT22;12760;46.296;25.290;2023-03-01T08:43:02;7.10;99.90
24614;DHT22;12760;46.296;25.290;2023-03-01T08:45:28;7.00;99.90
24614;DHT22;12760;46.296;25.290;2023-03-01T08:47:53;7.00;99.90
24614;DHT22;12760;46.296;25.290;2023-03-01T08:50:19;7.00;99.90
24614;DHT22;12760;46.296;25.290;2023-03-01T08:52:45;7.00;99.90
24614;DHT22;12760;46.296;25.290;2023-03-01T08:55:10;7.10;99.90
24614;DHT22;12760;46.296;25.290;2023-03-01T08:57:36;7.10;99.90
24614;DHT22;12760;46.296;25.290;2023-03-01T09:00:02;7.00;99.90
24614;DHT22;12760;46.296;25.290;2023-03-01T09:02:28;7.00;99.90
24614;DHT22;12760;46.296;25.290;2023-03-01T09:04:54;6.90;99.90
24614;DHT22;12760;46.296;25.290;2023-03-01T09:07:20;7.00;99.90
24614;DHT22;12760;46.296;25.290;2023-03-01T09:09:45;7.00;99.90
24614;DHT22;12760;46.296;25.290;2023-03-01T09:12:11;7.00;99.90
24614;DHT22;12760;46.296;25.290;2023-03-01T09:14:37;7.20;99.90
24614;DHT22;12760;46.296;25.290;2023-03-01T09:17:04;7.30;99.90
24614;DHT22;12760;46.296;25.290;2023-03-01T09:19:30;7.30;99.90
24614;DHT22;12760;46.296;25.290;2023-03-01T09:21:56;7.40;99.90
24614;DHT22;12760;46.296;25.290;2023-03-01T09:24:24;7.50;99.90
24614;DHT22;12760;46.296;25.290;2023-03-01T09:26:51;7.60;99.90
24614;DHT22;12760;46.296;25.290;2023-03-01T09:29:18;7.60;99.90
24614;DHT22;12760;46.296;25.290;2023-03-01T09:31:43;7.60;99.90
24614;DHT22;12760;46.296;25.290;2023-03-01T09:34:09;7.60;99.90
24614;DHT22;12760;46.296;25.290;2023-03-01T09:36:35;7.80;99.90
24614;DHT22;12760;46.296;25.290;2023-03-01T09:39:02;7.90;99.90
24614;DHT22;12760;46.296;25.290;2023-03-01T09:46:57;8.10;99.90
24614;DHT22;12760;46.296;25.290;2023-03-01T09:49:33;8.20;99.90
24614;DHT22;12760;46.296;25.290;2023-03-01T09:52:03;8.30;99.90
24614;DHT22;12760;46.296;25.290;2023-03-01T09:54:31;8.30;99.90
24614;DHT22;12760;46.296;25.290;2023-03-01T09:57:18;8.30;99.90
24614;DHT22;12760;46.296;25.290;2023-03-01T09:59:49;8.30;99.90
24614;DHT22;12760;46.296;25.290;2023-03-01T10:02:26;8.30;99.90
24614;DHT22;12760;46.296;25.290;2023-03-01T10:04:57;8.20;99.90
24614;DHT22;12760;46.296;25.290;2023-03-01T10:10:07;8.20;99.90
24614;DHT22;12760;46.296;25.290;2023-03-01T10:12:37;8.20;99.90
24614;DHT22;12760;46.296;25.290;2023-03-01T10:20:24;8.30;99.90
24614;DHT22;12760;46.296;25.290;2023-03-01T10:22:50;8.40;99.90
24614;DHT22;12760;46.296;25.290;2023-03-01T10:30:51;8.60;99.90
24614;DHT22;12760;46.296;25.290;2023-03-01T10:33:23;8.50;99.90
24614;DHT22;12760;46.296;25.290;2023-03-01T10:35:50;8.40;99.90
24614;DHT22;12760;46.296;25.290;2023-03-01T10:38:18;8.50;99.90
24614;DHT22;12760;46.296;25.290;2023-03-01T10:40:58;8.60;99.90
24614;DHT22;12760;46.296;25.290;2023-03-01T10:43:40;8.60;99.90
24614;DHT22;12760;46.296;25.290;2023-03-01T10:46:31;8.70;99.90
24614;DHT22;12760;46.296;25.290;2023-03-01T10:49:21;8.70;99.90
24614;DHT22;12760;46.296;25.290;2023-03-01T10:51:49;8.80;99.90
24614;DHT22;12760;46.296;25.290;2023-03-01T10:56:50;9.00;99.90
24614;DHT22;12760;46.296;25.290;2023-03-01T10:59:36;9.00;99.90
24614;DHT22;12760;46.296;25.290;2023-03-01T11:05:07;9.20;99.90
24614;DHT22;12760;46.296;25.290;2023-03-01T11:07:54;9.20;99.90
24614;DHT22;12760;46.296;25.290;2023-03-01T11:12:54;9.20;99.90
24614;DHT22;12760;46.296;25.290;2023-03-01T11:15:30;9.20;99.90
24614;DHT22;12760;46.296;25.290;2023-03-01T11:17:57;9.20;99.90
24614;DHT22;12760;46.296;25.290;2023-03-01T11:20:36;9.30;99.90
24614;DHT22;12760;46.296;25.290;2023-03-01T11:23:05;9.40;99.90
24614;DHT22;12760;46.296;25.290;2023-03-01T11:25:39;9.30;99.90
24614;DHT22;12760;46.296;25.290;2023-03-01T11:28:12;9.40;99.90
24614;DHT22;12760;46.296;25.290;2023-03-01T11:30:46;9.40;99.90
24614;DHT22;12760;46.296;25.290;2023-03-01T11:33:33;9.40;99.90
24614;DHT22;12760;46.296;25.290;2023-03-01T11:36:01;9.50;99.90
24614;DHT22;12760;46.296;25.290;2023-03-01T11:38:29;9.50;99.90
24614;DHT22;12760;46.296;25.290;2023-03-01T11:46:33;9.50;99.90
24614;DHT22;12760;46.296;25.290;2023-03-01T11:55:15;9.80;99.90
24614;DHT22;12760;46.296;25.290;2023-03-01T12:03:28;10.00;99.90
24614;DHT22;12760;46.296;25.290;2023-03-01T12:08:50;9.80;99.90
24614;DHT22;12760;46.296;25.290;2023-03-01T12:11:57;9.90;99.90
24614;DHT22;12760;46.296;25.290;2023-03-01T12:20:32;9.90;99.90
24614;DHT22;12760;46.296;25.290;2023-03-01T12:26:10;10.00;99.90
24614;DHT22;12760;46.296;25.290;2023-03-01T12:29:24;10.10;99.90
24614;DHT22;12760;46.296;25.290;2023-03-01T12:32:10;10.00;99.90
24614;DHT22;12760;46.296;25.290;2023-03-01T12:34:46;9.90;99.90
24614;DHT22;12760;46.296;25.290;2023-03-01T12:37:19;9.90;99.90
24614;DHT22;12760;46.296;25.290;2023-03-01T12:42:36;10.00;99.90
24614;DHT22;12760;46.296;25.290;2023-03-01T12:48:09;9.90;99.90
24614;DHT22;12760;46.296;25.290;2023-03-01T12:50:52;10.00;99.90
24614;DHT22;12760;46.296;25.290;2023-03-01T12:53:26;10.00;99.90
24614;DHT22;12760;46.296;25.290;2023-03-01T12:55:56;10.10;99.90
24614;DHT22;12760;46.296;25.290;2023-03-01T12:58:41;10.00;99.90
24614;DHT22;12760;46.296;25.290;2023-03-01T13:01:15;10.00;99.90
24614;DHT22;12760;46.296;25.290;2023-03-01T13:06:36;10.10;99.90
24614;DHT22;12760;46.296;25.290;2023-03-01T13:11:48;10.20;99.90
24614;DHT22;12760;46.296;25.290;2023-03-01T13:16:46;10.20;99.90
24614;DHT22;12760;46.296;25.290;2023-03-01T13:19:19;10.30;99.90
24614;DHT22;12760;46.296;25.290;2023-03-01T13:21:46;10.30;99.90
24614;DHT22;12760;46.296;25.290;2023-03-01T13:24:37;10.30;99.90
24614;DHT22;12760;46.296;25.290;2023-03-01T13:29:53;10.40;99.90
24614;DHT22;12760;46.296;25.290;2023-03-01T13:32:28;10.40;99.90
24614;DHT22;12760;46.296;25.290;2023-03-01T13:35:02;10.40;99.90
24614;DHT22;12760;46.296;25.290;2023-03-01T13:37:37;10.40;99.90
24614;DHT22;12760;46.296;25.290;2023-03-01T13:42:53;10.20;99.90
24614;DHT22;12760;46.296;25.290;2023-03-01T13:45:40;10.30;99.90
24614;DHT22;12760;46.296;25.290;2023-03-01T13:50:45;10.30;99.90
24614;DHT22;12760;46.296;25.290;2023-03-01T13:53:19;10.30;99.90
24614;DHT22;12760;46.296;25.290;2023-03-01T13:55:48;10.40;99.90
24614;DHT22;12760;46.296;25.290;2023-03-01T13:58:25;10.40;99.90
24614;DHT22;12760;46.296;25.290;2023-03-01T14:01:07;10.50;99.90
24614;DHT22;12760;46.296;25.290;2023-03-01T14:03:43;10.50;99.90
24614;DHT22;12760;46.296;25.290;2023-03-01T14:06:13;10.60;99.90
24614;DHT22;12760;46.296;25.290;2023-03-01T14:08:42;10.60;99.90
24614;DHT22;12760;46.296;25.290;2023-03-01T14:14:45;10.50;99.90
24614;DHT22;12760;46.296;25.290;2023-03-01T14:20:27;10.50;99.90
24614;DHT22;12760;46.296;25.290;2023-03-01T14:22:58;10.50;99.90
24614;DHT22;12760;46.296;25.290;2023-03-01T14:25:29;10.50;99.90
24614;DHT22;12760;46.296;25.290;2023-03-01T14:28:03;10.50;99.90
24614;DHT22;12760;46.296;25.290;2023-03-01T14:30:34;10.50;99.90
24614;DHT22;12760;46.296;25.290;2023-03-01T14:33:03;10.50;99.90
24614;DHT22;12760;46.296;25.290;2023-03-01T14:35:33;10.50;99.90
24614;DHT22;12760;46.296;25.290;2023-03-01T14:37:59;10.50;99.90
24614;DHT22;12760;46.296;25.290;2023-03-01T14:40:34;10.50;99.90
24614;DHT22;12760;46.296;25.290;2023-03-01T14:43:08;10.50;99.90
24614;DHT22;12760;46.296;25.290;2023-03-01T14:45:35;10.40;99.90
24614;DHT22;12760;46.296;25.290;2023-03-01T14:48:03;10.40;99.90
24614;DHT22;12760;46.296;25.290;2023-03-01T14:50:32;10.40;99.90
24614;DHT22;12760;46.296;25.290;2023-03-01T14:53:05;10.40;99.90
24614;DHT22;12760;46.296;25.290;2023-03-01T14:55:34;10.50;99.90
24614;DHT22;12760;46.296;25.290;2023-03-01T14:58:04;10.40;99.90
24614;DHT22;12760;46.296;25.290;2023-03-01T15:00:32;10.40;99.90
24614;DHT22;12760;46.296;25.290;2023-03-01T15:03:13;10.40;99.90
24614;DHT22;12760;46.296;25.290;2023-03-01T15:05:41;10.40;99.90
24614;DHT22;12760;46.296;25.290;2023-03-01T15:08:18;10.40;99.90
24614;DHT22;12760;46.296;25.290;2023-03-01T15:11:05;10.40;99.90
24614;DHT22;12760;46.296;25.290;2023-03-01T15:13:42;10.40;99.90
24614;DHT22;12760;46.296;25.290;2023-03-01T15:16:13;10.30;99.90
24614;DHT22;12760;46.296;25.290;2023-03-01T15:18:57;10.30;99.90
24614;DHT22;12760;46.296;25.290;2023-03-01T15:21:34;10.30;99.90
24614;DHT22;12760;46.296;25.290;2023-03-01T15:26:50;10.30;99.90
24614;DHT22;12760;46.296;25.290;2023-03-01T15:29:24;10.20;99.90
24614;DHT22;12760;46.296;25.290;2023-03-01T15:32:20;10.20;99.90
24614;DHT22;12760;46.296;25.290;2023-03-01T15:34:48;10.20;99.90
24614;DHT22;12760;46.296;25.290;2023-03-01T15:40:03;10.10;99.90
24614;DHT22;12760;46.296;25.290;2023-03-01T15:42:43;10.10;99.90
24614;DHT22;12760;46.296;25.290;2023-03-01T15:47:54;10.00;99.90
24614;DHT22;12760;46.296;25.290;2023-03-01T15:50:26;10.00;99.90
24614;DHT22;12760;46.296;25.290;2023-03-01T15:52:53;10.00;99.90
24614;DHT22;12760;46.296;25.290;2023-03-01T15:55:25;9.90;99.90
24614;DHT22;12760;46.296;25.290;2023-03-01T15:58:15;9.90;99.90
24614;DHT22;12760;46.296;25.290;2023-03-01T16:00:43;9.90;99.90
24614;DHT22;12760;46.296;25.290;2023-03-01T16:03:10;9.80;99.90
24614;DHT22;12760;46.296;25.290;2023-03-01T16:05:38;9.80;99.90
24614;DHT22;12760;46.296;25.290;2023-03-01T16:08:05;9.80;99.90
24614;DHT22;12760;46.296;25.290;2023-03-01T16:10:34;9.70;99.90
24614;DHT22;12760;46.296;25.290;2023-03-01T16:13:00;9.70;99.90
24614;DHT22;12760;46.296;25.290;2023-03-01T16:15:31;9.70;99.90
24614;DHT22;12760;46.296;25.290;2023-03-01T16:17:57;9.80;99.90
24614;DHT22;12760;46.296;25.290;2023-03-01T16:20:24;9.80;99.90
24614;DHT22;12760;46.296;25.290;2023-03-01T16:22:50;9.80;99.90
24614;DHT22;12760;46.296;25.290;2023-03-01T16:25:18;9.80;99.90
24614;DHT22;12760;46.296;25.290;2023-03-01T16:27:49;9.80;99.90
24614;DHT22;12760;46.296;25.290;2023-03-01T16:30:18;9.70;99.90
24614;DHT22;12760;46.296;25.290;2023-03-01T16:32:45;9.70;99.90
24614;DHT22;12760;46.296;25.290;2023-03-01T16:35:13;9.60;99.90
24614;DHT22;12760;46.296;25.290;2023-03-01T16:37:40;9.60;99.90
24614;DHT22;12760;46.296;25.290;2023-03-01T16:40:14;9.70;99.90
24614;DHT22;12760;46.296;25.290;2023-03-01T16:42:41;9.60;99.90
24614;DHT22;12760;46.296;25.290;2023-03-01T16:45:08;9.60;99.90
24614;DHT22;12760;46.296;25.290;2023-03-01T16:47:33;9.60;99.90
24614;DHT22;12760;46.296;25.290;2023-03-01T16:49:59;9.60;99.90
24614;DHT22;12760;46.296;25.290;2023-03-01T16:52:25;9.60;99.90
24614;DHT22;12760;46.296;25.290;2023-03-01T16:54:51;9.60;99.90
24614;DHT22;12760;46.296;25.290;2023-03-01T16:57:17;9.60;99.90
24614;DHT22;12760;46.296;25.290;2023-03-01T16:59:42;9.60;99.90
24614;DHT22;12760;46.296;25.290;2023-03-01T17:02:12;9.50;99.90
24614;DHT22;12760;46.296;25.290;2023-03-01T17:04:40;9.50;99.90
24614;DHT22;12760;46.296;25.290;2023-03-01T17:07:05;9.50;99.90
24614;DHT22;12760;46.296;25.290;2023-03-01T17:09:35;9.40;99.90
24614;DHT22;12760;46.296;25.290;2023-03-01T17:12:01;9.40;99.90
24614;DHT22;12760;46.296;25.290;2023-03-01T17:14:26;9.40;99.90
24614;DHT22;12760;46.296;25.290;2023-03-01T17:16:52;9.50;99.90
24614;DHT22;12760;46.296;25.290;2023-03-01T17:19:18;9.50;99.90
24614;DHT22;12760;46.296;25.290;2023-03-01T17:21:44;9.50;99.90
24614;DHT22;12760;46.296;25.290;2023-03-01T17:24:10;9.50;99.90
24614;DHT22;12760;46.296;25.290;2023-03-01T17:26:37;9.50;99.90
24614;DHT22;12760;46.296;25.290;2023-03-01T17:29:03;9.40;99.90